createdAt,value
2023-12-15T00:00:17.984Z,18.73
2023-12-15T00:02:46.381Z,19.95
2023-12-15T00:05:13.267Z,19.50
2023-12-15T00:07:39.904Z,19.58
2023-12-15T00:10:06.836Z,18.88
2023-12-15T00:12:33.330Z,19.33
2023-12-15T00:14:59.739Z,19.25
2023-12-15T00:17:26.250Z,18.55
2023-12-15T00:19:53.051Z,19.27
2023-12-15T00:22:19.416Z,19.75
2023-12-15T00:24:45.882Z,19.17
2023-12-15T00:27:12.303Z,18.73
2023-12-15T00:29:38.744Z,19.73
2023-12-15T00:32:05.306Z,19.17
2023-12-15T00:34:31.740Z,19.35
2023-12-15T00:36:58.192Z,19.85
2023-12-15T00:39:24.624Z,19.30
2023-12-15T00:41:50.950Z,19.30
2023-12-15T00:44:17.408Z,19.63
2023-12-15T00:46:43.858Z,19.40
2023-12-15T00:49:10.291Z,20.17
2023-12-15T00:51:36.706Z,19.23
2023-12-15T00:54:03.104Z,19.38
2023-12-15T00:56:29.524Z,20.20
2023-12-15T00:58:56.023Z,19.50
2023-12-15T01:01:22.457Z,19.73
2023-12-15T01:03:48.946Z,20.48
2023-12-15T01:06:15.497Z,19.38
2023-12-15T01:08:42.001Z,19.80
2023-12-15T01:11:09.512Z,20.42
2023-12-15T01:13:35.995Z,20.23
2023-12-15T01:16:04.641Z,21.52
2023-12-15T01:18:31.141Z,20.08
2023-12-15T01:20:57.635Z,20.73
2023-12-15T01:23:24.177Z,20.77
2023-12-15T01:25:50.674Z,20.65
2023-12-15T01:28:17.101Z,21.23
2023-12-15T01:30:43.566Z,21.65
2023-12-15T01:33:10.019Z,20.95
2023-12-15T01:35:36.501Z,21.35
2023-12-15T01:38:02.931Z,21.42
2023-12-15T01:40:29.388Z,21.52
2023-12-15T01:42:58.812Z,20.15
2023-12-15T01:45:25.208Z,16.95
2023-12-15T01:47:51.747Z,20.10
2023-12-15T01:50:18.325Z,20.80
2023-12-15T01:52:45.080Z,20.05
2023-12-15T01:55:11.515Z,19.83
2023-12-15T01:57:38.234Z,21.60
2023-12-15T02:00:08.101Z,21.55
2023-12-15T02:02:35.162Z,22.70
2023-12-15T02:05:01.868Z,21.98
2023-12-15T02:07:28.333Z,21.65
2023-12-15T02:09:54.748Z,22.70
2023-12-15T02:12:21.160Z,20.77
2023-12-15T02:14:47.504Z,20.83
2023-12-15T02:17:14.136Z,21.35
2023-12-15T02:19:40.537Z,22.85
2023-12-15T02:22:07.011Z,21.42
2023-12-15T02:24:33.430Z,21.75
2023-12-15T02:26:59.950Z,22.33
2023-12-15T02:29:28.034Z,21.88
2023-12-15T02:31:55.182Z,23.45
2023-12-15T02:34:21.832Z,25.45
2023-12-15T02:36:48.301Z,25.08
2023-12-15T02:39:14.680Z,22.45
2023-12-15T02:41:41.033Z,20.73
2023-12-15T02:44:07.439Z,22.08
2023-12-15T02:46:37.233Z,21.52
2023-12-15T02:49:03.718Z,21.40
2023-12-15T02:51:30.783Z,21.02
2023-12-15T02:54:01.050Z,21.38
2023-12-15T02:56:27.945Z,22.77
2023-12-15T02:58:54.740Z,21.67
2023-12-15T03:01:21.260Z,22.63
2023-12-15T03:03:47.759Z,22.45
2023-12-15T03:06:14.273Z,22.63
2023-12-15T03:08:40.702Z,22.20
2023-12-15T03:11:07.830Z,22.45
2023-12-15T03:13:36.154Z,21.88
2023-12-15T03:16:08.211Z,22.27
2023-12-15T03:18:34.641Z,23.67
2023-12-15T03:21:01.161Z,21.52
2023-12-15T03:23:27.780Z,20.50
2023-12-15T03:25:54.182Z,21.52
2023-12-15T03:28:20.730Z,20.98
2023-12-15T03:30:47.190Z,21.70
2023-12-15T03:33:13.779Z,23.05
2023-12-15T03:35:40.226Z,22.45
2023-12-15T03:38:06.919Z,23.00
2023-12-15T03:40:33.666Z,23.25
2023-12-15T03:43:00.173Z,22.27
2023-12-15T03:45:26.883Z,25.02
2023-12-15T03:47:53.436Z,22.65
2023-12-15T03:50:19.989Z,22.88
2023-12-15T03:52:46.490Z,23.40
2023-12-15T03:55:12.952Z,23.60
2023-12-15T03:57:40.131Z,23.63
2023-12-15T04:00:09.212Z,23.77
2023-12-15T04:02:36.076Z,23.50
2023-12-15T04:05:03.322Z,22.00
2023-12-15T04:07:29.925Z,24.15
2023-12-15T04:09:56.360Z,22.65
2023-12-15T04:12:22.844Z,22.50
2023-12-15T04:14:49.224Z,22.10
2023-12-15T04:17:15.605Z,21.08
2023-12-15T04:19:42.246Z,23.10
2023-12-15T04:22:08.789Z,22.15
2023-12-15T04:24:35.148Z,22.42
2023-12-15T04:27:01.573Z,23.95
2023-12-15T04:29:28.032Z,25.90
2023-12-15T04:31:54.480Z,21.98
2023-12-15T04:34:20.951Z,24.05
2023-12-15T04:36:47.473Z,26.15
2023-12-15T04:39:13.947Z,25.73
2023-12-15T04:41:40.335Z,23.25
2023-12-15T04:44:06.740Z,22.90
2023-12-15T04:46:33.157Z,24.67
2023-12-15T04:49:03.269Z,23.92
2023-12-15T04:51:29.747Z,26.17
2023-12-15T04:53:56.224Z,27.65
2023-12-15T04:56:22.627Z,26.20
2023-12-15T04:58:49.061Z,27.08
2023-12-15T05:01:15.703Z,25.58
2023-12-15T05:03:42.530Z,25.20
2023-12-15T05:06:19.084Z,24.35
2023-12-15T05:08:45.803Z,26.02
2023-12-15T05:11:12.177Z,24.33
2023-12-15T05:13:38.797Z,26.10
2023-12-15T05:16:05.816Z,24.90
2023-12-15T05:18:32.300Z,26.27
2023-12-15T05:20:58.868Z,26.27
2023-12-15T05:23:25.327Z,26.88
2023-12-15T05:25:51.738Z,26.10
2023-12-15T05:28:18.162Z,25.60
2023-12-15T05:30:44.623Z,27.67
2023-12-15T05:33:11.267Z,28.67
2023-12-15T05:35:37.884Z,25.70
2023-12-15T05:38:04.451Z,24.92
2023-12-15T05:40:31.028Z,26.60
2023-12-15T05:42:57.470Z,26.67
2023-12-15T05:45:23.889Z,28.75
2023-12-15T05:47:50.392Z,25.42
2023-12-15T05:50:17.210Z,26.13
2023-12-15T05:52:43.671Z,26.38
2023-12-15T05:55:10.087Z,25.67
2023-12-15T05:57:36.720Z,26.35
2023-12-15T06:00:04.334Z,28.45
2023-12-15T06:02:30.782Z,27.55
2023-12-15T06:04:57.327Z,27.58
2023-12-15T06:07:23.788Z,28.05
2023-12-15T06:09:50.223Z,27.67
2023-12-15T06:12:17.271Z,27.45
2023-12-15T06:14:43.751Z,26.58
2023-12-15T06:17:11.330Z,26.35
2023-12-15T06:19:43.936Z,28.50
2023-12-15T06:22:10.373Z,27.45
2023-12-15T06:24:36.770Z,28.05
2023-12-15T06:27:04.706Z,31.30
2023-12-15T06:29:31.180Z,31.05
2023-12-15T06:31:57.644Z,31.15
2023-12-15T06:34:24.167Z,33.47
2023-12-15T06:36:50.568Z,34.45
2023-12-15T06:39:17.018Z,38.83
2023-12-15T06:41:43.489Z,40.78
2023-12-15T06:44:09.967Z,40.00
2023-12-15T06:46:38.083Z,43.97
2023-12-15T06:49:04.611Z,47.55
2023-12-15T06:51:31.059Z,43.00
2023-12-15T06:53:57.946Z,38.92
2023-12-15T06:56:24.564Z,46.78
2023-12-15T06:58:50.966Z,45.25
2023-12-15T07:01:17.435Z,46.95
2023-12-15T07:03:43.993Z,42.78
2023-12-15T07:06:10.535Z,42.08
2023-12-15T07:08:37.122Z,41.85
2023-12-15T07:11:03.739Z,40.03
2023-12-15T07:13:30.111Z,47.17
2023-12-15T07:15:56.610Z,43.42
2023-12-15T07:18:23.093Z,38.17
2023-12-15T07:20:49.582Z,43.50
2023-12-15T07:23:16.003Z,47.10
2023-12-15T07:25:42.489Z,39.78
2023-12-15T07:28:08.952Z,41.83
2023-12-15T07:30:35.528Z,48.78
2023-12-15T07:33:02.115Z,45.33
2023-12-15T07:35:32.771Z,44.20
2023-12-15T07:38:00.263Z,45.40
2023-12-15T07:40:26.855Z,46.40
2023-12-15T07:42:53.279Z,46.30
2023-12-15T07:45:19.675Z,50.65
2023-12-15T07:47:46.166Z,46.17
2023-12-15T07:50:12.807Z,46.80
2023-12-15T07:52:39.303Z,46.17
2023-12-15T07:55:06.014Z,41.75
2023-12-15T07:57:33.746Z,44.58
2023-12-15T08:00:00.208Z,47.83
2023-12-15T08:02:26.648Z,46.28
2023-12-15T08:04:53.053Z,45.83
2023-12-15T08:07:19.480Z,44.83
2023-12-15T08:09:45.845Z,44.30
2023-12-15T08:12:12.345Z,43.97
2023-12-15T08:14:38.846Z,42.33
2023-12-15T08:17:05.683Z,42.83
2023-12-15T08:19:32.989Z,44.22
2023-12-15T08:22:00.727Z,48.05
2023-12-15T08:24:27.638Z,52.45
2023-12-15T08:26:55.132Z,45.22
2023-12-15T08:29:22.206Z,44.50
2023-12-15T08:31:50.238Z,42.45
2023-12-15T08:34:16.976Z,41.60
2023-12-15T08:36:44.875Z,44.85
2023-12-15T08:39:14.100Z,44.25
2023-12-15T08:41:42.376Z,46.70
2023-12-15T08:44:16.621Z,45.83
2023-12-15T08:46:50.517Z,43.55
2023-12-15T08:49:16.966Z,44.72
2023-12-15T08:51:43.390Z,43.28
2023-12-15T08:54:09.769Z,42.45
2023-12-15T08:56:36.328Z,41.67
2023-12-15T08:59:02.819Z,48.92
2023-12-15T09:01:29.249Z,39.47
2023-12-15T09:03:55.781Z,39.65
2023-12-15T09:06:27.352Z,42.05
2023-12-15T09:08:56.897Z,43.22
2023-12-15T09:11:23.510Z,35.33
2023-12-15T09:13:49.920Z,42.20
2023-12-15T09:16:16.571Z,39.70
2023-12-15T09:18:43.165Z,45.30
2023-12-15T09:21:09.619Z,38.63
2023-12-15T09:23:38.613Z,42.00
2023-12-15T09:26:05.178Z,39.63
2023-12-15T09:28:31.615Z,38.30
2023-12-15T09:30:58.002Z,40.28
2023-12-15T09:33:24.489Z,42.35
2023-12-15T09:35:54.734Z,38.45
2023-12-15T09:38:21.890Z,36.03
2023-12-15T09:40:49.166Z,36.85
2023-12-15T09:43:15.665Z,32.95
2023-12-15T09:45:42.080Z,32.67
2023-12-15T09:48:09.247Z,31.83
2023-12-15T09:50:35.995Z,31.17
2023-12-15T09:53:03.489Z,30.90
2023-12-15T09:55:31.332Z,28.45
2023-12-15T09:57:59.018Z,30.38
2023-12-15T10:00:25.544Z,31.08
2023-12-15T10:02:52.021Z,31.70
2023-12-15T10:05:18.543Z,30.50
2023-12-15T10:07:45.576Z,28.88
2023-12-15T10:10:12.559Z,34.10
2023-12-15T10:12:39.283Z,31.15
2023-12-15T10:15:08.139Z,29.58
2023-12-15T10:17:35.388Z,27.85
2023-12-15T10:20:07.173Z,26.20
2023-12-15T10:22:33.669Z,26.08
2023-12-15T10:25:00.016Z,29.17
2023-12-15T10:27:26.555Z,28.00
2023-12-15T10:29:53.695Z,27.65
2023-12-15T10:32:20.190Z,25.35
2023-12-15T10:34:47.755Z,27.58
2023-12-15T10:37:14.156Z,26.90
2023-12-15T10:39:40.694Z,23.60
2023-12-15T10:42:07.153Z,22.23
2023-12-15T10:44:34.887Z,24.70
2023-12-15T10:47:02.029Z,21.70
2023-12-15T10:49:37.546Z,21.50
2023-12-15T10:52:07.870Z,21.05
2023-12-15T10:54:35.472Z,23.13
2023-12-15T10:57:02.242Z,21.77
2023-12-15T10:59:31.379Z,20.63
2023-12-15T11:01:58.011Z,22.45
2023-12-15T11:04:24.515Z,22.40
2023-12-15T11:06:51.146Z,22.80
2023-12-15T11:09:46.128Z,23.70
2023-12-15T11:12:29.219Z,19.60
2023-12-15T11:15:00.671Z,17.85
2023-12-15T11:17:30.908Z,20.65
2023-12-15T11:19:58.451Z,20.83
2023-12-15T11:22:24.899Z,20.58
2023-12-15T11:24:51.367Z,20.20
2023-12-15T11:27:17.868Z,24.13
2023-12-15T11:29:44.272Z,25.83
2023-12-15T11:32:37.611Z,24.85
2023-12-15T11:35:06.123Z,22.10
2023-12-15T11:37:33.638Z,21.38
2023-12-15T11:40:01.724Z,24.55
2023-12-15T11:42:28.162Z,22.17
2023-12-15T11:44:54.558Z,24.95
2023-12-15T11:47:21.099Z,21.48
2023-12-15T11:49:47.688Z,22.40
2023-12-15T11:52:14.202Z,21.90
2023-12-15T11:54:40.894Z,25.35
2023-12-15T11:57:07.334Z,22.02
2023-12-15T11:59:37.421Z,25.05
2023-12-15T12:02:04.035Z,21.17
2023-12-15T12:04:31.424Z,22.90
2023-12-15T12:06:58.750Z,24.80
2023-12-15T12:09:25.821Z,26.83
2023-12-15T12:11:56.677Z,23.75
2023-12-15T12:14:25.044Z,24.40
2023-12-15T12:16:53.296Z,29.50
2023-12-15T12:19:22.859Z,26.95
2023-12-15T12:21:51.943Z,28.25
2023-12-15T12:24:18.378Z,26.60
2023-12-15T12:26:45.026Z,26.05
2023-12-15T12:29:13.717Z,26.95
2023-12-15T12:31:40.129Z,26.52
2023-12-15T12:34:06.557Z,22.88
2023-12-15T12:36:33.117Z,28.05
2023-12-15T12:39:00.296Z,22.73
2023-12-15T12:41:26.838Z,23.75
2023-12-15T12:43:53.230Z,24.33
2023-12-15T12:46:19.646Z,24.48
2023-12-15T12:48:48.766Z,29.05
2023-12-15T12:51:15.616Z,25.47
2023-12-15T12:53:42.133Z,23.10
2023-12-15T12:56:08.973Z,24.20
2023-12-15T12:58:35.564Z,25.13
2023-12-15T13:01:02.046Z,27.70
2023-12-15T13:03:28.528Z,23.00
2023-12-15T13:05:56.575Z,24.17
2023-12-15T13:08:23.174Z,26.17
2023-12-15T13:10:49.744Z,24.02
2023-12-15T13:13:16.107Z,25.42
2023-12-15T13:15:42.542Z,25.95
2023-12-15T13:18:11.349Z,21.70
2023-12-15T13:20:38.859Z,27.40
2023-12-15T13:23:05.284Z,22.27
2023-12-15T13:25:32.034Z,28.83
2023-12-15T13:27:58.436Z,22.25
2023-12-15T13:30:25.012Z,23.45
2023-12-15T13:32:51.691Z,24.85
2023-12-15T13:35:18.317Z,24.75
2023-12-15T13:37:44.841Z,28.67
2023-12-15T13:40:12.884Z,22.75
2023-12-15T13:42:39.832Z,23.90
2023-12-15T13:45:06.734Z,23.77
2023-12-15T13:47:34.691Z,23.90
2023-12-15T13:50:01.444Z,23.67
2023-12-15T13:52:27.917Z,24.55
2023-12-15T13:54:54.447Z,26.27
2023-12-15T13:57:20.924Z,20.65
2023-12-15T13:59:47.348Z,24.60
2023-12-15T14:02:13.788Z,23.95
2023-12-15T14:04:40.798Z,20.02
2023-12-15T14:07:07.218Z,17.73
2023-12-15T14:09:33.657Z,22.73
2023-12-15T14:12:00.209Z,19.55
2023-12-15T14:14:27.158Z,23.70
2023-12-15T14:16:53.570Z,20.08
2023-12-15T14:19:20.465Z,23.13
2023-12-15T14:21:47.516Z,26.55
2023-12-15T14:24:19.219Z,22.38
2023-12-15T14:26:46.201Z,22.67
2023-12-15T14:29:12.832Z,22.75
2023-12-15T14:31:39.674Z,21.80
2023-12-15T14:34:06.385Z,21.70
2023-12-15T14:36:32.964Z,22.85
2023-12-15T14:38:59.373Z,20.27
2023-12-15T14:41:27.962Z,21.65
2023-12-15T14:43:54.490Z,16.13
2023-12-15T14:46:21.012Z,20.55
2023-12-15T14:48:47.852Z,21.08
2023-12-15T14:51:15.301Z,21.17
2023-12-15T14:53:41.722Z,18.00
2023-12-15T14:56:11.401Z,22.58
2023-12-15T14:58:38.133Z,21.08
2023-12-15T15:01:05.205Z,21.38
2023-12-15T15:03:31.657Z,21.13
2023-12-15T15:05:58.222Z,18.13
2023-12-15T15:08:24.773Z,21.73
2023-12-15T15:10:51.182Z,21.08
2023-12-15T15:13:20.218Z,24.17
2023-12-15T15:15:48.291Z,25.98
2023-12-15T15:18:15.480Z,21.23
2023-12-15T15:20:42.090Z,22.08
2023-12-15T15:23:08.542Z,25.70
2023-12-15T15:25:34.975Z,21.02
2023-12-15T15:28:01.377Z,21.92
2023-12-15T15:30:27.850Z,23.17
2023-12-15T15:32:55.059Z,22.85
2023-12-15T15:35:22.548Z,21.50
2023-12-15T15:37:49.144Z,22.88
2023-12-15T15:40:15.594Z,22.55
2023-12-15T15:42:42.049Z,28.05
2023-12-15T15:45:08.657Z,22.58
2023-12-15T15:47:35.073Z,26.73
2023-12-15T15:50:01.485Z,20.33
2023-12-15T15:52:27.824Z,24.23
2023-12-15T15:54:54.226Z,23.85
2023-12-15T15:57:21.221Z,23.13
2023-12-15T15:59:47.575Z,26.48
2023-12-15T16:02:14.102Z,19.45
2023-12-15T16:04:40.815Z,20.65
2023-12-15T16:07:07.310Z,27.08
2023-12-15T16:09:33.705Z,25.42
2023-12-15T16:12:00.135Z,21.25
2023-12-15T16:14:26.607Z,24.67
2023-12-15T16:16:52.986Z,28.15
2023-12-15T16:19:19.493Z,23.27
2023-12-15T16:21:45.958Z,23.17
2023-12-15T16:24:12.526Z,23.75
2023-12-15T16:26:41.845Z,17.95
2023-12-15T16:29:08.501Z,19.13
2023-12-15T16:31:34.894Z,25.73
2023-12-15T16:34:02.781Z,25.77
2023-12-15T16:36:29.357Z,26.77
2023-12-15T16:38:55.752Z,22.90
2023-12-15T16:41:28.590Z,23.60
2023-12-15T16:43:54.995Z,22.25
2023-12-15T16:46:21.708Z,20.50
2023-12-15T16:48:55.298Z,21.40
2023-12-15T16:51:23.130Z,27.00
2023-12-15T16:53:49.737Z,22.42
2023-12-15T16:56:16.193Z,21.92
2023-12-15T17:01:33.438Z,23.63
2023-12-15T17:03:59.910Z,21.35
2023-12-15T17:06:26.456Z,25.73
2023-12-15T17:08:53.066Z,20.08
2023-12-15T17:11:19.715Z,22.98
2023-12-15T17:13:46.192Z,18.75
2023-12-15T17:16:13.526Z,20.08
2023-12-15T17:18:40.210Z,21.02
2023-12-15T17:21:11.648Z,21.85
2023-12-15T17:23:38.127Z,19.15
2023-12-15T17:26:04.595Z,21.00
2023-12-15T17:28:31.187Z,17.13
2023-12-15T17:30:57.692Z,17.08
2023-12-15T17:33:24.240Z,21.15
2023-12-15T17:35:50.805Z,17.48
2023-12-15T17:38:17.261Z,22.75
2023-12-15T17:40:43.789Z,20.80
2023-12-15T17:43:10.307Z,20.90
2023-12-15T17:45:39.814Z,20.88
2023-12-15T17:48:10.262Z,22.67
2023-12-15T17:50:39.781Z,21.38
2023-12-15T17:53:06.351Z,22.70
2023-12-15T17:55:34.114Z,21.40
2023-12-15T17:58:02.715Z,17.70
2023-12-15T18:00:29.440Z,17.13
2023-12-15T18:02:55.970Z,18.27
2023-12-15T18:05:22.499Z,20.20
2023-12-15T18:07:49.046Z,17.92
2023-12-15T18:10:20.309Z,18.48
2023-12-15T18:12:47.209Z,22.58
2023-12-15T18:15:14.666Z,17.67
2023-12-15T18:20:08.744Z,18.13
2023-12-15T18:22:35.763Z,16.35
2023-12-15T18:25:02.265Z,22.33
2023-12-15T18:27:28.800Z,19.73
2023-12-15T18:29:57.138Z,17.67
2023-12-15T18:32:23.720Z,21.98
2023-12-15T18:34:50.491Z,17.90
2023-12-15T18:37:17.061Z,17.98
2023-12-15T18:39:44.038Z,19.48
2023-12-15T18:42:10.464Z,23.17
2023-12-15T18:44:38.254Z,19.60
2023-12-15T18:47:04.685Z,21.83
2023-12-15T18:49:31.729Z,19.70
2023-12-15T18:51:58.299Z,22.30
2023-12-15T18:54:24.834Z,21.85
2023-12-15T18:56:51.219Z,19.27
2023-12-15T18:59:17.631Z,16.30
2023-12-15T19:01:44.206Z,18.08
2023-12-15T19:04:13.699Z,18.20
2023-12-15T19:06:40.356Z,19.93
2023-12-15T19:09:07.357Z,17.83
2023-12-15T19:11:34.095Z,18.25
2023-12-15T19:14:00.798Z,19.27
2023-12-15T19:16:28.321Z,18.75
2023-12-15T19:18:55.136Z,18.77
2023-12-15T19:21:22.768Z,24.20
2023-12-15T19:23:53.706Z,18.52
2023-12-15T19:26:20.891Z,19.25
2023-12-15T19:28:47.899Z,16.48
2023-12-15T19:31:14.587Z,23.58
2023-12-15T19:33:42.144Z,21.38
2023-12-15T19:36:08.998Z,20.73
2023-12-15T19:38:35.459Z,18.55
2023-12-15T19:41:01.867Z,19.85
2023-12-15T19:43:30.102Z,17.90
2023-12-15T19:45:56.985Z,22.40
2023-12-15T19:48:23.540Z,19.85
2023-12-15T19:50:50.201Z,20.10
2023-12-15T19:53:16.595Z,18.98
2023-12-15T19:55:43.051Z,16.83
2023-12-15T19:58:09.517Z,17.40
2023-12-15T20:00:36.957Z,21.70
2023-12-15T20:03:04.329Z,18.70
2023-12-15T20:05:30.863Z,18.05
2023-12-15T20:07:57.394Z,17.35
2023-12-15T20:10:23.864Z,21.95
2023-12-15T20:12:50.521Z,17.02
2023-12-15T20:15:17.853Z,17.40
2023-12-15T20:17:45.638Z,30.90
2023-12-15T20:20:12.859Z,16.40
2023-12-15T20:22:39.346Z,13.73
2023-12-15T20:25:07.777Z,21.23
2023-12-15T20:27:42.304Z,20.38
2023-12-15T20:30:11.879Z,18.80
2023-12-15T20:32:38.791Z,15.27
2023-12-15T20:35:09.433Z,19.00
2023-12-15T20:37:36.246Z,18.55
2023-12-15T20:40:03.116Z,28.25
2023-12-15T20:42:30.415Z,23.00
2023-12-15T20:44:57.169Z,38.80
2023-12-15T20:47:24.155Z,17.27
2023-12-15T20:49:50.679Z,23.63
2023-12-15T20:52:18.083Z,22.15
2023-12-15T20:54:44.690Z,26.13
2023-12-15T20:57:11.151Z,26.95
2023-12-15T20:59:41.370Z,49.42
2023-12-15T21:02:08.107Z,66.65
2023-12-15T21:04:36.909Z,23.67
2023-12-15T21:07:04.950Z,49.33
2023-12-15T21:09:31.566Z,42.30
2023-12-15T21:11:58.592Z,41.10
2023-12-15T21:14:25.255Z,23.00
2023-12-15T21:16:53.182Z,18.58
2023-12-15T21:19:19.787Z,26.08
2023-12-15T21:21:49.523Z,22.48
2023-12-15T21:24:21.516Z,25.42
2023-12-15T21:26:51.963Z,19.92
2023-12-15T21:29:24.339Z,23.08
2023-12-15T21:31:57.425Z,20.02
2023-12-15T21:34:25.128Z,19.70
2023-12-15T21:36:53.243Z,26.17
2023-12-15T21:39:23.300Z,20.33
2023-12-15T21:41:53.508Z,23.05
2023-12-15T21:44:20.186Z,19.98
2023-12-15T21:46:50.188Z,19.65
2023-12-15T21:49:27.621Z,19.30
2023-12-15T21:51:54.403Z,24.58
2023-12-15T21:54:21.719Z,21.67
2023-12-15T21:56:48.497Z,19.73
2023-12-15T21:59:14.988Z,24.40
2023-12-15T22:01:46.310Z,22.10
2023-12-15T22:04:13.129Z,21.58
2023-12-15T22:06:52.674Z,20.25
2023-12-15T22:09:23.579Z,28.00
2023-12-15T22:11:50.850Z,23.40
2023-12-15T22:14:21.772Z,27.58
2023-12-15T22:16:53.649Z,21.55
2023-12-15T22:19:21.483Z,19.70
2023-12-15T22:21:48.008Z,21.13
2023-12-15T22:24:14.859Z,20.60
2023-12-15T22:26:46.600Z,18.20
2023-12-15T22:29:14.223Z,19.52
2023-12-15T22:31:44.870Z,19.90
2023-12-15T22:34:12.491Z,20.52
2023-12-15T22:36:42.834Z,26.00
2023-12-15T22:39:09.499Z,21.30
2023-12-15T22:41:35.959Z,18.00
2023-12-15T22:44:02.476Z,19.50
2023-12-15T22:46:34.395Z,22.05
2023-12-15T22:49:00.976Z,21.42
2023-12-15T22:51:27.592Z,15.80
2023-12-15T22:53:54.032Z,19.48
2023-12-15T22:56:20.624Z,23.13
2023-12-15T22:58:48.953Z,19.98
2023-12-15T23:01:15.605Z,24.70
2023-12-15T23:03:43.934Z,22.23
2023-12-15T23:06:11.392Z,14.02
2023-12-15T23:08:37.970Z,23.20
2023-12-15T23:11:04.785Z,20.55
2023-12-15T23:13:31.304Z,18.25
2023-12-15T23:15:57.933Z,16.83
2023-12-15T23:18:29.677Z,18.40
2023-12-15T23:21:01.421Z,16.42
2023-12-15T23:23:30.174Z,17.00
2023-12-15T23:25:56.693Z,16.88
2023-12-15T23:28:25.525Z,19.63
2023-12-15T23:30:54.350Z,14.93
2023-12-15T23:33:21.459Z,12.85
2023-12-15T23:35:47.931Z,16.15
2023-12-15T23:38:14.563Z,16.35
2023-12-15T23:40:40.988Z,18.35
2023-12-15T23:43:07.594Z,21.08
2023-12-15T23:45:34.217Z,18.42
2023-12-15T23:48:00.879Z,18.73
2023-12-15T23:50:27.430Z,18.08
2023-12-15T23:52:54.049Z,17.45
2023-12-15T23:55:20.515Z,16.13
2023-12-15T23:57:47.000Z,18.92
